createdAt,value
2023-04-18T00:00:10.667Z,94.92
2023-04-18T00:05:33.314Z,95.22
2023-04-18T00:10:36.098Z,95.88
2023-04-18T00:15:38.940Z,96.42
2023-04-18T00:20:41.821Z,96.81
2023-04-18T00:25:44.601Z,97.63
2023-04-18T00:30:47.418Z,98.16
2023-04-18T00:35:50.287Z,98.01
2023-04-18T00:40:53.061Z,97.81
2023-04-18T00:45:57.263Z,97.73
2023-04-18T00:51:00.740Z,97.98
2023-04-18T00:56:04.954Z,97.52
2023-04-18T01:01:08.025Z,97.61
2023-04-18T01:06:10.894Z,97.36
2023-04-18T01:11:13.663Z,97.49
2023-04-18T01:16:16.465Z,97.40
2023-04-18T01:21:20.470Z,97.55
2023-04-18T01:26:23.334Z,97.51
2023-04-18T01:31:26.235Z,98.04
2023-04-18T01:36:29.154Z,98.26
2023-04-18T01:41:33.094Z,98.54
2023-04-18T01:46:36.740Z,98.50
2023-04-18T01:51:39.573Z,98.30
2023-04-18T01:56:42.445Z,98.49
2023-04-18T02:01:45.270Z,98.36
2023-04-18T02:06:48.142Z,98.68
2023-04-18T02:11:51.071Z,98.36
2023-04-18T02:16:53.891Z,98.45
2023-04-18T02:21:56.742Z,98.56
2023-04-18T02:26:59.495Z,98.65
2023-04-18T02:32:02.342Z,98.71
2023-04-18T02:37:05.297Z,98.73
2023-04-18T02:42:08.075Z,98.46
2023-04-18T02:47:10.880Z,98.50
2023-04-18T02:52:14.857Z,98.39
2023-04-18T02:57:17.733Z,98.68
2023-04-18T03:02:21.147Z,98.68
2023-04-18T03:07:24.128Z,98.89
2023-04-18T03:12:26.928Z,98.75
2023-04-18T03:17:29.761Z,98.92
2023-04-18T03:22:32.556Z,99.38
2023-04-18T03:27:35.734Z,100.00
2023-04-18T03:32:38.746Z,100.00
2023-04-18T03:37:41.514Z,100.00
2023-04-18T03:42:44.400Z,100.00
2023-04-18T03:47:47.255Z,100.00
2023-04-18T03:52:50.022Z,99.77
2023-04-18T03:57:52.815Z,99.15
2023-04-18T04:02:55.836Z,99.03
2023-04-18T04:07:58.865Z,98.11
2023-04-18T04:13:01.663Z,98.82
2023-04-18T04:18:06.289Z,96.92
2023-04-18T04:23:10.143Z,95.98
2023-04-18T04:28:13.779Z,94.46
2023-04-18T04:33:20.819Z,92.09
2023-04-18T04:38:23.593Z,92.38
2023-04-18T04:43:28.903Z,91.11
2023-04-18T04:48:31.708Z,90.32
2023-04-18T04:53:34.635Z,89.84
2023-04-18T04:58:37.449Z,88.82
2023-04-18T05:03:40.526Z,87.91
2023-04-18T05:08:43.531Z,88.20
2023-04-18T05:13:46.325Z,87.85
2023-04-18T05:18:49.052Z,87.27
2023-04-18T05:23:51.930Z,86.86
2023-04-18T05:28:55.020Z,86.63
2023-04-18T05:33:57.750Z,86.50
2023-04-18T05:39:02.902Z,85.79
2023-04-18T05:44:07.086Z,85.41
2023-04-18T05:49:10.720Z,84.03
2023-04-18T05:54:13.801Z,83.93
2023-04-18T05:59:17.550Z,84.39
2023-04-18T06:04:21.477Z,81.52
2023-04-18T06:09:24.509Z,82.04
2023-04-18T06:14:28.432Z,80.97
2023-04-18T06:19:36.002Z,76.23
2023-04-18T06:24:42.523Z,70.44
2023-04-18T06:29:45.660Z,65.40
2023-04-18T06:34:49.719Z,64.74
2023-04-18T06:39:56.146Z,64.11
2023-04-18T06:44:59.805Z,60.66
2023-04-18T06:50:06.127Z,57.99
2023-04-18T06:55:10.002Z,48.20
2023-04-18T07:00:13.739Z,47.02
2023-04-18T07:05:17.437Z,50.16
2023-04-18T07:10:21.347Z,54.29
2023-04-18T07:15:31.153Z,56.22
2023-04-18T07:20:40.467Z,56.82
2023-04-18T07:25:43.373Z,57.84
2023-04-18T07:30:46.217Z,53.03
2023-04-18T07:35:50.705Z,48.85
2023-04-18T07:41:02.712Z,44.32
2023-04-18T07:46:07.049Z,42.97
2023-04-18T07:51:11.605Z,41.18
2023-04-18T07:56:15.565Z,39.92
2023-04-18T08:01:20.970Z,39.16
2023-04-18T08:06:27.220Z,36.85
2023-04-18T08:11:30.454Z,38.16
2023-04-18T08:16:33.432Z,38.29
2023-04-18T08:21:37.353Z,38.46
2023-04-18T08:26:40.520Z,38.53
2023-04-18T08:31:43.456Z,37.66
2023-04-18T08:36:46.371Z,40.35
2023-04-18T08:41:57.355Z,41.88
2023-04-18T08:47:02.096Z,43.60
2023-04-18T08:52:14.064Z,43.31
2023-04-18T08:57:18.416Z,42.82
2023-04-18T09:02:23.542Z,43.67
2023-04-18T09:07:30.507Z,44.15
2023-04-18T09:12:42.462Z,44.01
2023-04-18T09:17:51.073Z,43.53
2023-04-18T09:23:00.837Z,45.12
2023-04-18T09:28:27.088Z,46.18
2023-04-18T09:33:34.538Z,47.57
2023-04-18T09:38:41.396Z,48.02
2023-04-18T09:43:45.782Z,48.34
2023-04-18T09:48:53.238Z,48.77
2023-04-18T09:53:56.529Z,48.60
2023-04-18T09:59:07.347Z,48.34
2023-04-18T10:04:12.131Z,47.75
2023-04-18T10:09:16.476Z,47.57
2023-04-18T10:14:20.122Z,47.03
2023-04-18T10:19:28.681Z,48.15
2023-04-18T10:24:57.072Z,47.78
2023-04-18T10:29:59.970Z,47.62
2023-04-18T10:35:05.472Z,47.76
2023-04-18T10:40:10.566Z,48.03
2023-04-18T10:45:26.860Z,46.11
2023-04-18T10:50:29.927Z,46.23
2023-04-18T10:55:35.872Z,46.26
2023-04-18T11:00:40.522Z,46.46
2023-04-18T11:05:46.447Z,46.88
2023-04-18T11:11:03.202Z,47.56
2023-04-18T11:16:08.740Z,47.72
2023-04-18T11:21:43.385Z,45.60
2023-04-18T11:26:46.288Z,45.06
2023-04-18T11:31:55.263Z,44.86
2023-04-18T11:37:00.634Z,43.67
2023-04-18T11:42:03.920Z,44.83
2023-04-18T11:47:34.983Z,45.74
2023-04-18T11:52:40.354Z,46.84
2023-04-18T11:57:49.392Z,47.57
2023-04-18T12:02:57.437Z,47.67
2023-04-18T12:08:17.355Z,47.05
2023-04-18T12:13:26.943Z,46.75
2023-04-18T12:18:42.739Z,46.95
2023-04-18T12:30:42.725Z,46.84
2023-04-18T12:35:48.391Z,46.59
2023-04-18T12:40:52.593Z,46.45
2023-04-18T12:46:03.353Z,47.02
2023-04-18T12:51:07.188Z,47.66
2023-04-18T12:56:10.018Z,46.85
2023-04-18T13:01:18.064Z,47.78
2023-04-18T13:06:21.530Z,49.35
2023-04-18T13:11:28.519Z,49.26
2023-04-18T13:16:31.843Z,45.19
2023-04-18T13:21:35.168Z,45.55
2023-04-18T13:26:40.197Z,45.68
2023-04-18T13:31:43.243Z,47.26
2023-04-18T13:36:46.077Z,49.05
2023-04-18T13:41:50.795Z,50.43
2023-04-18T13:46:53.732Z,51.51
2023-04-18T13:51:59.367Z,52.65
2023-04-18T13:57:04.024Z,53.87
2023-04-18T14:02:08.719Z,55.01
2023-04-18T14:07:14.552Z,56.85
2023-04-18T14:12:48.665Z,57.77
2023-04-18T14:17:51.880Z,58.74
2023-04-18T14:22:54.759Z,58.91
2023-04-18T14:28:08.155Z,58.83
2023-04-18T14:33:11.114Z,56.53
2023-04-18T14:38:13.927Z,55.28
2023-04-18T14:43:16.926Z,57.37
2023-04-18T14:48:22.243Z,58.59
2023-04-18T14:53:25.398Z,59.28
2023-04-18T14:58:28.257Z,59.92
2023-04-18T15:03:31.496Z,59.83
2023-04-18T15:08:35.146Z,59.82
2023-04-18T15:13:40.452Z,59.80
2023-04-18T15:18:44.059Z,59.93
2023-04-18T15:23:46.947Z,60.85
2023-04-18T15:28:50.233Z,62.00
2023-04-18T15:33:53.033Z,63.13
2023-04-18T15:38:56.080Z,64.47
2023-04-18T15:43:58.873Z,64.98
2023-04-18T15:49:01.771Z,65.45
2023-04-18T15:54:04.700Z,65.75
2023-04-18T15:59:13.935Z,66.19
2023-04-18T16:04:19.088Z,66.50
2023-04-18T16:09:22.464Z,67.03
2023-04-18T16:14:25.376Z,67.43
2023-04-18T16:19:28.312Z,67.77
2023-04-18T16:24:31.262Z,68.01
2023-04-18T16:29:34.830Z,68.38
2023-04-18T16:34:37.675Z,68.45
2023-04-18T16:39:40.814Z,68.64
2023-04-18T16:44:47.205Z,68.65
2023-04-18T16:49:52.145Z,68.97
2023-04-18T16:54:55.117Z,69.24
2023-04-18T16:59:58.722Z,69.68
2023-04-18T17:05:02.752Z,70.51
2023-04-18T17:10:08.807Z,71.16
2023-04-18T17:15:13.430Z,71.55
2023-04-18T17:20:17.909Z,72.06
2023-04-18T17:25:21.234Z,71.68
2023-04-18T17:30:24.405Z,71.41
2023-04-18T17:35:27.439Z,71.82
2023-04-18T17:40:31.322Z,72.13
2023-04-18T17:45:34.566Z,72.37
2023-04-18T17:50:42.984Z,72.82
2023-04-18T17:55:48.997Z,73.26
2023-04-18T18:00:53.037Z,73.61
2023-04-18T18:05:56.244Z,73.72
2023-04-18T18:11:01.727Z,74.13
2023-04-18T18:16:05.891Z,74.23
2023-04-18T18:21:08.798Z,74.59
2023-04-18T18:26:12.456Z,75.06
2023-04-18T18:31:15.262Z,75.43
2023-04-18T18:36:18.112Z,75.95
2023-04-18T18:41:24.594Z,76.13
2023-04-18T18:46:27.833Z,76.00
2023-04-18T18:51:31.087Z,75.92
2023-04-18T18:56:33.851Z,75.79
2023-04-18T19:01:37.086Z,76.07
2023-04-18T19:06:40.337Z,75.68
2023-04-18T19:11:43.082Z,75.72
2023-04-18T19:16:45.980Z,75.32
2023-04-18T19:21:48.772Z,74.91
2023-04-18T19:26:51.587Z,74.38
2023-04-18T19:31:54.409Z,74.45
2023-04-18T19:36:57.458Z,74.71
2023-04-18T19:42:02.000Z,74.30
2023-04-18T19:47:04.885Z,73.35
2023-04-18T19:52:07.802Z,73.35
2023-04-18T19:57:10.629Z,72.59
2023-04-18T20:02:15.143Z,69.80
2023-04-18T20:07:18.006Z,67.35
2023-04-18T20:12:21.075Z,67.47
2023-04-18T20:17:23.858Z,70.05
2023-04-18T20:22:26.920Z,71.91
2023-04-18T20:27:29.741Z,72.13
2023-04-18T20:32:33.582Z,73.07
2023-04-18T20:37:36.758Z,73.30
2023-04-18T20:42:39.913Z,73.53
2023-04-18T20:47:43.288Z,73.90
2023-04-18T20:52:49.190Z,74.06
2023-04-18T20:57:52.024Z,74.17
2023-04-18T21:02:54.980Z,74.53
2023-04-18T21:07:59.813Z,74.66
2023-04-18T21:13:02.595Z,74.92
2023-04-18T21:18:05.533Z,74.87
2023-04-18T21:23:08.413Z,75.11
2023-04-18T21:28:12.462Z,75.11
2023-04-18T21:33:15.236Z,75.40
2023-04-18T21:38:18.116Z,75.58
2023-04-18T21:43:20.983Z,76.04
2023-04-18T21:48:23.742Z,76.21
2023-04-18T21:53:26.512Z,76.18
2023-04-18T21:58:29.785Z,76.46
2023-04-18T22:03:34.224Z,76.64
2023-04-18T22:08:37.197Z,76.70
2023-04-18T22:13:40.196Z,76.74
2023-04-18T22:18:43.015Z,77.03
2023-04-18T22:23:45.944Z,77.02
2023-04-18T22:28:48.710Z,77.26
2023-04-18T22:33:51.516Z,77.11
2023-04-18T22:38:54.354Z,77.31
2023-04-18T22:43:57.081Z,77.38
2023-04-18T22:48:59.864Z,77.76
2023-04-18T22:54:02.670Z,77.96
2023-04-18T22:59:05.407Z,78.42
2023-04-18T23:04:08.454Z,78.52
2023-04-18T23:09:11.453Z,78.64
2023-04-18T23:14:17.416Z,78.71
2023-04-18T23:19:20.235Z,78.96
2023-04-18T23:24:23.115Z,79.18
2023-04-18T23:29:25.914Z,79.45
2023-04-18T23:34:28.710Z,79.48
2023-04-18T23:39:31.490Z,79.61
2023-04-18T23:44:34.294Z,79.57
2023-04-18T23:49:37.071Z,79.75
2023-04-18T23:54:39.869Z,79.79
2023-04-18T23:59:42.645Z,80.10
